Details From PGUM - Guam Intl
To PGWT - TINIAN INTL
Flight Number -
Tags generated
Created
Modified
Stats Distance 103 nm / 190 km
Max Altitude 8,600 ft / 2,621 m
Waypoints 3
Social Downloads 18
Likes 0
Share

Download

Looking for another format? Having issues loading an existing format? Contact us
Advertisement - Login to hide

Notes

Basic altitude profile: - Ascent Rate: 1300ft/min - Ascent Speed: 120kts - Cruise Altitude: 15000ft - Cruise Speed: 175kts - Descent Rate: 1500ft/min - Descent Speed: 130kts Options: - Use NATs: yes - Use PACOTS: yes - Use low airways: yes - Use high airways: yes

Route

PGUM KAQTU PGWT

ID Type Via Altitude (ft/m) Position (lat/lon) Dist (leg/tot) Name
O PGUM APT - 0 / 0 13.48400 / 144.79700 - / 0 nm Guam Intl
KAQTU FIX - 8,600 / 2,621 13.76190 / 144.97000 19 / 19 nm
O PGWT APT - 0 / 0 14.99920 / 145.61900 83 / 102 nm TINIAN INTL

Altitude Profile

Advertisement - Login to hide

PGUM

Details ICAO PGUM (GUM)
Name Guam Intl
Region USA (Guam, Northern Mariana Islands)
Timezone Pacific/Guam (UTC+10.0)
Stats Elevation 305 ft / 93 m (AMSL)
Location 13.484000° 144.797000°
Runways 2
Magnetic Variation 0.443° E

METAR

PGUM 271454Z 07007KT 10SM CLR 28/25 A2988 RMK AO2 SLP111 T02780250 58000 $

Decode

TAF

TAF PGUM 271141Z 2712/2818 08008KT P6SM VCSH FEW020 SCT150

Decode

Departure Runways

ID Width Length Bearing (true/mag) Surface Threshold Overrun Markings Lighting
06L 150 ft / 46 m 12,020 ft / 3,664 m 64.81° / 64.37° ASPHALT 1,014 ft / 309 m 397 ft / 121 m PREC-APP EDGE THRESHOLD MALSR
06R 151 ft / 46 m 10,019 ft / 3,054 m 64.83° / 64.39° ASPHALT 0 ft / 0 m 400 ft / 122 m PREC-APP EDGE THRESHOLD MALSR
24L 151 ft / 46 m 10,019 ft / 3,054 m 244.84° / 244.40° ASPHALT 1,010 ft / 308 m 394 ft / 120 m PREC-APP EDGE THRESHOLD
24R 150 ft / 46 m 12,020 ft / 3,664 m 244.82° / 244.37° ASPHALT 0 ft / 0 m 397 ft / 121 m PREC-APP EDGE THRESHOLD

PGWT

Details ICAO PGWT (TIQ)
Name Tinian Intl
Region USA (Guam, Northern Mariana Islands)
Timezone Pacific/Saipan (UTC+10.0)
Stats Elevation 270 ft / 82 m (AMSL)
Location 14.999200° 145.619000°
Runways 1
Magnetic Variation 0.222° E

METAR

Not found

TAF

TAF TAF PGWT 270531Z 2706/2806 07010KT P6SM VCSH SCT015 SCT150

Decode

Destination Runways

ID Width Length Bearing (true/mag) Surface Threshold Overrun Markings Lighting
08 151 ft / 46 m 8,584 ft / 2,616 m 78.97° / 78.75° CONCRETE 0 ft / 0 m 200 ft / 61 m PREC-APP EDGE THRESHOLD REIL-OMNI
26 151 ft / 46 m 8,584 ft / 2,616 m 258.98° / 258.76° CONCRETE 0 ft / 0 m 203 ft / 62 m PREC-APP EDGE THRESHOLD REIL-OMNI

Popular Alternatives